Portada
METAR-TAF:

METAR-TAF

Aeropuertos :

Dakar, Senegal

Aeropuerto Internacional de Dakar-Yoff/Léopold Sédar Senghor

latitud: 14-44N, longitud: 017-30W, altitud: 27 m

Observación

El informe se hizo hace 32 minutos, a las 09:00 UTC
Viento 4 kt del norte
Temperatura 19°C
Humedad 88%
Presión 1012 hPa
Visibilidad 10 km o más
sin nubes por debajo de 1500 m y sin presencia de cumulonimbus.

METAR: GOOY 200900Z 36004KT CAVOK 19/17 Q1012

Hora: 09:32 (09:32 UTC)

Pronóstico

El informe se hizo hace 4 horas y 2 minutos, a las 05:30 UTC
Pronóstico válido del 20 a las 06 UTC al 21 a las 12 UTC
Viento 10 kt del norte
Visibilidad: 8000 m

TAF: GOOY 200530Z 2006/2112 36010KT 8000 NSC

Observaciones y pronósticos meteorológicos de más de 4000 aeropuertos (mensajes METAR y TAF).

Los puntos amarillos y rojos representan las estaciones disponibles.

Ponga el ratón en el punto deseado para ver el nombre de la estación.

Haga clic para ver las observaciones y los pronósticos meteorológicos.

Para cambiar el mapa : haga clic en los botones verdes con una cruz de color negro para hacer un zoom, en el botón verde con un guión para alejar o en las flechas verdes para mapas adyacentes.


METAR-TAF: